Terminal Aerodrome Forecast
Issued by NWS

Home | Current Version | Previous Version | Text Only | Print | Product List | Glossary On
Versions: 1 2 3 4 5 6 7 8 9 10 11 12 13 14 15
000
FTUS46 KMTR 311735
TAFSJC
TAF
KSJC 311735Z 3118/0118 31005KT P6SM FEW200
     FM312100 31012KT P6SM FEW200
     FM010500 31008KT P6SM FEW250
     FM010800 31006KT P6SM BKN010
     FM011300 VRB03KT P6SM OVC010
     FM011700 VRB05KT P6SM FEW012 FEW150=

USA.gov is the U.S. government's official web portal to all federal, state and local government web resources and services.